sensor_id;sensor_type;location;lat;lon;timestamp;temperature;humidity
46416;DHT22;32620;51.704;7.822;2023-06-24T00:01:14;15.70;99.90
46416;DHT22;32620;51.704;7.822;2023-06-24T00:03:39;15.70;99.90
46416;DHT22;32620;51.704;7.822;2023-06-24T00:06:05;15.70;99.90
46416;DHT22;32620;51.704;7.822;2023-06-24T00:08:31;15.70;99.90
46416;DHT22;32620;51.704;7.822;2023-06-24T00:11:01;15.70;99.90
46416;DHT22;32620;51.704;7.822;2023-06-24T00:13:27;15.60;99.90
46416;DHT22;32620;51.704;7.822;2023-06-24T00:15:54;15.60;99.90
46416;DHT22;32620;51.704;7.822;2023-06-24T00:18:20;15.60;99.90
46416;DHT22;32620;51.704;7.822;2023-06-24T00:20:46;15.60;99.90
46416;DHT22;32620;51.704;7.822;2023-06-24T00:23:15;15.50;99.90
46416;DHT22;32620;51.704;7.822;2023-06-24T00:25:42;15.50;99.90
46416;DHT22;32620;51.704;7.822;2023-06-24T00:28:08;15.50;99.90
46416;DHT22;32620;51.704;7.822;2023-06-24T00:30:33;15.40;99.90
46416;DHT22;32620;51.704;7.822;2023-06-24T00:32:59;15.40;99.90
46416;DHT22;32620;51.704;7.822;2023-06-24T00:35:24;15.40;99.90
46416;DHT22;32620;51.704;7.822;2023-06-24T00:37:50;15.40;99.90
46416;DHT22;32620;51.704;7.822;2023-06-24T00:40:15;15.30;99.90
46416;DHT22;32620;51.704;7.822;2023-06-24T00:42:44;15.30;99.90
46416;DHT22;32620;51.704;7.822;2023-06-24T00:45:10;15.30;99.90
46416;DHT22;32620;51.704;7.822;2023-06-24T00:47:36;15.30;99.90
46416;DHT22;32620;51.704;7.822;2023-06-24T00:50:02;15.20;99.90
46416;DHT22;32620;51.704;7.822;2023-06-24T00:52:28;15.30;99.90
46416;DHT22;32620;51.704;7.822;2023-06-24T00:54:53;15.20;99.90
46416;DHT22;32620;51.704;7.822;2023-06-24T00:57:19;15.20;99.90
46416;DHT22;32620;51.704;7.822;2023-06-24T00:59:49;15.20;99.90
46416;DHT22;32620;51.704;7.822;2023-06-24T01:02:20;15.10;99.90
46416;DHT22;32620;51.704;7.822;2023-06-24T01:04:48;15.10;99.90
46416;DHT22;32620;51.704;7.822;2023-06-24T01:07:14;15.10;99.90
46416;DHT22;32620;51.704;7.822;2023-06-24T01:09:41;15.10;99.90
46416;DHT22;32620;51.704;7.822;2023-06-24T01:12:07;15.00;99.90
46416;DHT22;32620;51.704;7.822;2023-06-24T01:14:34;15.10;99.90
46416;DHT22;32620;51.704;7.822;2023-06-24T01:17:21;15.00;99.90
46416;DHT22;32620;51.704;7.822;2023-06-24T01:23:24;15.00;99.90
46416;DHT22;32620;51.704;7.822;2023-06-24T01:29:15;15.00;99.90
46416;DHT22;32620;51.704;7.822;2023-06-24T01:32:49;14.90;99.90
46416;DHT22;32620;51.704;7.822;2023-06-24T01:34:46;14.90;99.90
46416;DHT22;32620;51.704;7.822;2023-06-24T01:37:19;14.90;99.90
46416;DHT22;32620;51.704;7.822;2023-06-24T01:39:50;14.90;99.90
46416;DHT22;32620;51.704;7.822;2023-06-24T01:42:18;14.90;99.90
46416;DHT22;32620;51.704;7.822;2023-06-24T01:44:47;14.90;99.90
46416;DHT22;32620;51.704;7.822;2023-06-24T01:47:16;14.90;99.90
46416;DHT22;32620;51.704;7.822;2023-06-24T01:49:45;14.90;99.90
46416;DHT22;32620;51.704;7.822;2023-06-24T01:52:11;14.90;99.90
46416;DHT22;32620;51.704;7.822;2023-06-24T01:54:39;14.80;99.90
46416;DHT22;32620;51.704;7.822;2023-06-24T01:57:08;14.80;99.90
46416;DHT22;32620;51.704;7.822;2023-06-24T01:59:35;14.80;99.90
46416;DHT22;32620;51.704;7.822;2023-06-24T02:02:03;14.80;99.90
46416;DHT22;32620;51.704;7.822;2023-06-24T02:04:30;14.80;99.90
46416;DHT22;32620;51.704;7.822;2023-06-24T02:07:00;14.70;99.90
46416;DHT22;32620;51.704;7.822;2023-06-24T02:09:28;14.80;99.90
46416;DHT22;32620;51.704;7.822;2023-06-24T02:11:57;14.70;99.90
46416;DHT22;32620;51.704;7.822;2023-06-24T02:14:24;14.70;99.90
46416;DHT22;32620;51.704;7.822;2023-06-24T02:16:51;14.70;99.90
46416;DHT22;32620;51.704;7.822;2023-06-24T02:19:22;14.70;99.90
46416;DHT22;32620;51.704;7.822;2023-06-24T02:21:48;14.70;99.90
46416;DHT22;32620;51.704;7.822;2023-06-24T02:24:17;14.70;99.90
46416;DHT22;32620;51.704;7.822;2023-06-24T02:26:43;14.70;99.90
46416;DHT22;32620;51.704;7.822;2023-06-24T02:29:11;14.60;99.90
46416;DHT22;32620;51.704;7.822;2023-06-24T02:31:38;14.60;99.90
46416;DHT22;32620;51.704;7.822;2023-06-24T02:34:03;14.60;99.90
46416;DHT22;32620;51.704;7.822;2023-06-24T02:36:29;14.60;99.90
46416;DHT22;32620;51.704;7.822;2023-06-24T02:38:55;14.60;99.90
46416;DHT22;32620;51.704;7.822;2023-06-24T02:41:20;14.60;99.90
46416;DHT22;32620;51.704;7.822;2023-06-24T02:43:46;14.50;99.90
46416;DHT22;32620;51.704;7.822;2023-06-24T02:46:11;14.50;99.90
46416;DHT22;32620;51.704;7.822;2023-06-24T02:48:40;14.50;99.90
46416;DHT22;32620;51.704;7.822;2023-06-24T02:51:07;14.50;99.90
46416;DHT22;32620;51.704;7.822;2023-06-24T02:53:36;14.40;99.90
46416;DHT22;32620;51.704;7.822;2023-06-24T02:56:04;14.40;99.90
46416;DHT22;32620;51.704;7.822;2023-06-24T02:58:31;14.40;99.90
46416;DHT22;32620;51.704;7.822;2023-06-24T03:01:01;14.40;99.90
46416;DHT22;32620;51.704;7.822;2023-06-24T03:03:29;14.40;99.90
46416;DHT22;32620;51.704;7.822;2023-06-24T03:05:55;14.40;99.90
46416;DHT22;32620;51.704;7.822;2023-06-24T03:08:23;14.40;99.90
46416;DHT22;32620;51.704;7.822;2023-06-24T03:10:51;14.40;99.90
46416;DHT22;32620;51.704;7.822;2023-06-24T03:13:17;14.40;99.90
46416;DHT22;32620;51.704;7.822;2023-06-24T03:15:42;14.40;99.90
46416;DHT22;32620;51.704;7.822;2023-06-24T03:18:08;14.40;99.90
46416;DHT22;32620;51.704;7.822;2023-06-24T03:20:33;14.40;99.90
46416;DHT22;32620;51.704;7.822;2023-06-24T03:23:05;14.40;99.90
46416;DHT22;32620;51.704;7.822;2023-06-24T03:25:32;14.40;99.90
46416;DHT22;32620;51.704;7.822;2023-06-24T03:27:57;14.50;99.90
46416;DHT22;32620;51.704;7.822;2023-06-24T03:30:23;14.50;99.90
46416;DHT22;32620;51.704;7.822;2023-06-24T03:32:49;14.50;99.90
46416;DHT22;32620;51.704;7.822;2023-06-24T03:35:15;14.50;99.90
46416;DHT22;32620;51.704;7.822;2023-06-24T03:37:40;14.50;99.90
46416;DHT22;32620;51.704;7.822;2023-06-24T03:40:07;14.50;99.90
46416;DHT22;32620;51.704;7.822;2023-06-24T03:42:33;14.60;99.90
46416;DHT22;32620;51.704;7.822;2023-06-24T03:44:59;14.60;99.90
46416;DHT22;32620;51.704;7.822;2023-06-24T03:47:24;14.70;99.90
46416;DHT22;32620;51.704;7.822;2023-06-24T03:49:50;14.80;99.90
46416;DHT22;32620;51.704;7.822;2023-06-24T03:52:17;14.80;99.90
46416;DHT22;32620;51.704;7.822;2023-06-24T03:54:42;14.90;99.90
46416;DHT22;32620;51.704;7.822;2023-06-24T03:57:08;15.00;99.90
46416;DHT22;32620;51.704;7.822;2023-06-24T03:59:34;15.10;99.90
46416;DHT22;32620;51.704;7.822;2023-06-24T04:02:00;15.20;99.90
46416;DHT22;32620;51.704;7.822;2023-06-24T04:04:26;15.20;99.90
46416;DHT22;32620;51.704;7.822;2023-06-24T04:06:51;15.30;99.90
46416;DHT22;32620;51.704;7.822;2023-06-24T04:09:17;15.40;99.90
46416;DHT22;32620;51.704;7.822;2023-06-24T04:11:43;15.60;99.90
46416;DHT22;32620;51.704;7.822;2023-06-24T04:14:08;15.80;99.90
46416;DHT22;32620;51.704;7.822;2023-06-24T04:16:35;16.00;99.90
46416;DHT22;32620;51.704;7.822;2023-06-24T04:19:01;16.10;99.90
46416;DHT22;32620;51.704;7.822;2023-06-24T04:21:27;16.30;99.90
46416;DHT22;32620;51.704;7.822;2023-06-24T04:23:52;16.40;99.90
46416;DHT22;32620;51.704;7.822;2023-06-24T04:26:18;16.60;99.90
46416;DHT22;32620;51.704;7.822;2023-06-24T04:28:44;16.70;99.90
46416;DHT22;32620;51.704;7.822;2023-06-24T04:31:09;16.90;99.90
46416;DHT22;32620;51.704;7.822;2023-06-24T04:33:35;17.00;99.90
46416;DHT22;32620;51.704;7.822;2023-06-24T04:36:01;17.30;99.90
46416;DHT22;32620;51.704;7.822;2023-06-24T04:38:26;17.60;99.90
46416;DHT22;32620;51.704;7.822;2023-06-24T04:40:52;17.80;96.90
46416;DHT22;32620;51.704;7.822;2023-06-24T04:43:18;18.20;76.20
46416;DHT22;32620;51.704;7.822;2023-06-24T04:45:44;18.60;37.00
46416;DHT22;32620;51.704;7.822;2023-06-24T04:48:09;19.20;6.70
46416;DHT22;32620;51.704;7.822;2023-06-24T04:50:35;19.70;1.00
46416;DHT22;32620;51.704;7.822;2023-06-24T04:53:00;19.90;1.00
46416;DHT22;32620;51.704;7.822;2023-06-24T04:55:27;20.10;1.00
46416;DHT22;32620;51.704;7.822;2023-06-24T04:57:55;20.30;1.00
46416;DHT22;32620;51.704;7.822;2023-06-24T05:00:20;20.10;1.00
46416;DHT22;32620;51.704;7.822;2023-06-24T05:02:48;19.80;1.00
46416;DHT22;32620;51.704;7.822;2023-06-24T05:05:14;19.50;1.00
46416;DHT22;32620;51.704;7.822;2023-06-24T05:07:39;19.50;1.00
46416;DHT22;32620;51.704;7.822;2023-06-24T05:10:05;19.40;1.00
46416;DHT22;32620;51.704;7.822;2023-06-24T05:12:31;19.20;1.00
46416;DHT22;32620;51.704;7.822;2023-06-24T05:14:56;19.00;1.00
46416;DHT22;32620;51.704;7.822;2023-06-24T05:17:22;18.90;1.00
46416;DHT22;32620;51.704;7.822;2023-06-24T05:19:48;19.10;8.40
46416;DHT22;32620;51.704;7.822;2023-06-24T05:22:13;19.30;1.00
46416;DHT22;32620;51.704;7.822;2023-06-24T05:24:39;19.50;1.00
46416;DHT22;32620;51.704;7.822;2023-06-24T05:27:06;20.30;1.00
46416;DHT22;32620;51.704;7.822;2023-06-24T05:29:33;21.40;1.00
46416;DHT22;32620;51.704;7.822;2023-06-24T05:31:59;22.20;99.90
46416;DHT22;32620;51.704;7.822;2023-06-24T05:34:25;22.80;26.50
46416;DHT22;32620;51.704;7.822;2023-06-24T05:36:51;23.30;99.90
46416;DHT22;32620;51.704;7.822;2023-06-24T05:39:17;23.70;1.00
46416;DHT22;32620;51.704;7.822;2023-06-24T05:41:42;24.20;99.90
46416;DHT22;32620;51.704;7.822;2023-06-24T05:44:08;24.10;99.90
46416;DHT22;32620;51.704;7.822;2023-06-24T05:46:36;23.20;99.90
46416;DHT22;32620;51.704;7.822;2023-06-24T05:49:01;23.30;1.00
46416;DHT22;32620;51.704;7.822;2023-06-24T05:51:27;23.20;1.00
46416;DHT22;32620;51.704;7.822;2023-06-24T05:53:53;23.70;99.90
46416;DHT22;32620;51.704;7.822;2023-06-24T05:56:20;23.90;99.90
46416;DHT22;32620;51.704;7.822;2023-06-24T05:58:45;24.20;99.90
46416;DHT22;32620;51.704;7.822;2023-06-24T06:01:11;24.10;24.90
46416;DHT22;32620;51.704;7.822;2023-06-24T06:03:36;24.80;1.00
46416;DHT22;32620;51.704;7.822;2023-06-24T06:06:02;25.30;99.90
46416;DHT22;32620;51.704;7.822;2023-06-24T06:08:28;25.80;99.90
46416;DHT22;32620;51.704;7.822;2023-06-24T06:10:53;26.00;1.00
46416;DHT22;32620;51.704;7.822;2023-06-24T06:13:19;26.10;1.00
46416;DHT22;32620;51.704;7.822;2023-06-24T06:15:44;26.20;1.00
46416;DHT22;32620;51.704;7.822;2023-06-24T06:18:11;26.60;99.90
46416;DHT22;32620;51.704;7.822;2023-06-24T06:20:37;26.00;99.90
46416;DHT22;32620;51.704;7.822;2023-06-24T06:23:02;26.20;1.00
46416;DHT22;32620;51.704;7.822;2023-06-24T06:25:28;26.90;99.90
46416;DHT22;32620;51.704;7.822;2023-06-24T06:27:54;26.70;99.90
46416;DHT22;32620;51.704;7.822;2023-06-24T06:30:19;27.00;99.90
46416;DHT22;32620;51.704;7.822;2023-06-24T06:32:45;25.80;99.90
46416;DHT22;32620;51.704;7.822;2023-06-24T06:35:11;26.40;99.90
46416;DHT22;32620;51.704;7.822;2023-06-24T06:37:36;26.60;99.90
46416;DHT22;32620;51.704;7.822;2023-06-24T06:40:02;27.20;1.00
46416;DHT22;32620;51.704;7.822;2023-06-24T06:42:29;26.50;92.90
46416;DHT22;32620;51.704;7.822;2023-06-24T06:44:54;26.50;99.90
46416;DHT22;32620;51.704;7.822;2023-06-24T06:47:20;27.00;71.10
46416;DHT22;32620;51.704;7.822;2023-06-24T06:49:45;27.20;26.90
46416;DHT22;32620;51.704;7.822;2023-06-24T06:52:11;26.80;1.00
46416;DHT22;32620;51.704;7.822;2023-06-24T06:54:37;25.30;1.00
46416;DHT22;32620;51.704;7.822;2023-06-24T06:57:03;25.00;1.00
46416;DHT22;32620;51.704;7.822;2023-06-24T06:59:30;25.00;20.50
46416;DHT22;32620;51.704;7.822;2023-06-24T07:01:55;25.00;1.00
46416;DHT22;32620;51.704;7.822;2023-06-24T07:04:21;26.00;1.00
46416;DHT22;32620;51.704;7.822;2023-06-24T07:06:47;27.20;25.80
46416;DHT22;32620;51.704;7.822;2023-06-24T07:09:13;29.40;99.90
46416;DHT22;32620;51.704;7.822;2023-06-24T07:11:38;29.20;99.90
46416;DHT22;32620;51.704;7.822;2023-06-24T07:14:04;28.70;52.00
46416;DHT22;32620;51.704;7.822;2023-06-24T07:16:29;27.90;99.90
46416;DHT22;32620;51.704;7.822;2023-06-24T07:18:55;28.40;99.90
46416;DHT22;32620;51.704;7.822;2023-06-24T07:21:20;28.40;99.90
46416;DHT22;32620;51.704;7.822;2023-06-24T07:23:46;28.50;99.90
46416;DHT22;32620;51.704;7.822;2023-06-24T07:26:12;29.10;38.10
46416;DHT22;32620;51.704;7.822;2023-06-24T07:28:37;29.30;39.30
46416;DHT22;32620;51.704;7.822;2023-06-24T07:31:03;29.00;99.90
46416;DHT22;32620;51.704;7.822;2023-06-24T07:33:28;29.20;1.00
46416;DHT22;32620;51.704;7.822;2023-06-24T07:35:56;29.70;27.10
46416;DHT22;32620;51.704;7.822;2023-06-24T07:38:22;29.90;99.90
46416;DHT22;32620;51.704;7.822;2023-06-24T07:40:47;29.80;1.00
46416;DHT22;32620;51.704;7.822;2023-06-24T07:43:13;30.10;1.00
46416;DHT22;32620;51.704;7.822;2023-06-24T07:45:39;29.30;1.00
46416;DHT22;32620;51.704;7.822;2023-06-24T07:48:04;28.30;99.90
46416;DHT22;32620;51.704;7.822;2023-06-24T07:50:30;29.00;99.90
46416;DHT22;32620;51.704;7.822;2023-06-24T07:52:57;29.10;99.90
46416;DHT22;32620;51.704;7.822;2023-06-24T07:55:22;28.60;99.90
46416;DHT22;32620;51.704;7.822;2023-06-24T07:57:48;28.50;99.90
46416;DHT22;32620;51.704;7.822;2023-06-24T08:00:15;29.30;99.90
46416;DHT22;32620;51.704;7.822;2023-06-24T08:02:41;29.30;99.90
46416;DHT22;32620;51.704;7.822;2023-06-24T08:05:07;28.30;99.90
46416;DHT22;32620;51.704;7.822;2023-06-24T08:07:34;28.60;99.90
46416;DHT22;32620;51.704;7.822;2023-06-24T08:10:00;29.30;99.90
46416;DHT22;32620;51.704;7.822;2023-06-24T08:12:26;30.40;99.90
46416;DHT22;32620;51.704;7.822;2023-06-24T08:14:51;30.50;99.90
46416;DHT22;32620;51.704;7.822;2023-06-24T08:17:17;30.80;99.90
46416;DHT22;32620;51.704;7.822;2023-06-24T08:19:42;30.00;99.90
46416;DHT22;32620;51.704;7.822;2023-06-24T08:22:08;29.90;99.90
46416;DHT22;32620;51.704;7.822;2023-06-24T08:24:33;29.80;99.90
46416;DHT22;32620;51.704;7.822;2023-06-24T08:26:59;29.70;99.90
46416;DHT22;32620;51.704;7.822;2023-06-24T08:29:25;30.10;99.90
46416;DHT22;32620;51.704;7.822;2023-06-24T08:31:50;30.50;99.90
46416;DHT22;32620;51.704;7.822;2023-06-24T08:34:16;31.20;99.90
46416;DHT22;32620;51.704;7.822;2023-06-24T08:36:41;31.00;99.90
46416;DHT22;32620;51.704;7.822;2023-06-24T08:39:07;30.80;99.90
46416;DHT22;32620;51.704;7.822;2023-06-24T08:41:33;29.20;99.90
46416;DHT22;32620;51.704;7.822;2023-06-24T08:43:59;29.40;99.90
46416;DHT22;32620;51.704;7.822;2023-06-24T08:46:25;29.40;99.90
46416;DHT22;32620;51.704;7.822;2023-06-24T08:48:58;30.20;99.90
46416;DHT22;32620;51.704;7.822;2023-06-24T08:51:27;30.50;99.90
46416;DHT22;32620;51.704;7.822;2023-06-24T08:53:53;31.20;99.90
46416;DHT22;32620;51.704;7.822;2023-06-24T08:56:19;31.00;99.90
46416;DHT22;32620;51.704;7.822;2023-06-24T08:58:45;30.60;1.00
46416;DHT22;32620;51.704;7.822;2023-06-24T09:01:11;29.70;99.90
46416;DHT22;32620;51.704;7.822;2023-06-24T09:06:05;29.00;1.00
46416;DHT22;32620;51.704;7.822;2023-06-24T09:08:31;29.80;1.00
46416;DHT22;32620;51.704;7.822;2023-06-24T09:10:57;30.00;1.00
46416;DHT22;32620;51.704;7.822;2023-06-24T09:13:33;31.10;99.90
46416;DHT22;32620;51.704;7.822;2023-06-24T09:16:00;30.80;99.90
46416;DHT22;32620;51.704;7.822;2023-06-24T09:18:33;30.40;99.90
46416;DHT22;32620;51.704;7.822;2023-06-24T09:20:59;30.00;99.90
46416;DHT22;32620;51.704;7.822;2023-06-24T09:23:27;30.40;1.00
46416;DHT22;32620;51.704;7.822;2023-06-24T09:25:56;30.10;99.90
46416;DHT22;32620;51.704;7.822;2023-06-24T09:28:27;29.60;32.70
46416;DHT22;32620;51.704;7.822;2023-06-24T09:31:09;29.50;26.20
46416;DHT22;32620;51.704;7.822;2023-06-24T09:33:35;29.60;28.80
46416;DHT22;32620;51.704;7.822;2023-06-24T09:36:03;29.90;17.30
46416;DHT22;32620;51.704;7.822;2023-06-24T09:38:34;30.90;99.90
46416;DHT22;32620;51.704;7.822;2023-06-24T09:41:04;31.50;1.00
46416;DHT22;32620;51.704;7.822;2023-06-24T09:43:38;30.60;74.70
46416;DHT22;32620;51.704;7.822;2023-06-24T09:46:07;29.70;99.90
46416;DHT22;32620;51.704;7.822;2023-06-24T09:48:34;30.60;99.90
46416;DHT22;32620;51.704;7.822;2023-06-24T09:51:02;29.70;99.90
46416;DHT22;32620;51.704;7.822;2023-06-24T09:58:25;28.20;74.70
46416;DHT22;32620;51.704;7.822;2023-06-24T10:00:52;28.40;10.10
46416;DHT22;32620;51.704;7.822;2023-06-24T10:03:18;29.00;22.90
46416;DHT22;32620;51.704;7.822;2023-06-24T10:05:44;28.70;92.40
46416;DHT22;32620;51.704;7.822;2023-06-24T10:10:37;27.60;1.00
46416;DHT22;32620;51.704;7.822;2023-06-24T10:13:03;26.10;99.90
46416;DHT22;32620;51.704;7.822;2023-06-24T10:15:28;27.40;99.90
46416;DHT22;32620;51.704;7.822;2023-06-24T10:17:54;28.00;99.90
46416;DHT22;32620;51.704;7.822;2023-06-24T10:20:27;28.20;1.00
46416;DHT22;32620;51.704;7.822;2023-06-24T10:22:52;27.50;99.90
46416;DHT22;32620;51.704;7.822;2023-06-24T10:25:18;28.80;99.90
46416;DHT22;32620;51.704;7.822;2023-06-24T10:27:44;30.20;99.90
46416;DHT22;32620;51.704;7.822;2023-06-24T10:30:18;31.10;99.90
46416;DHT22;32620;51.704;7.822;2023-06-24T10:32:44;30.60;17.10
46416;DHT22;32620;51.704;7.822;2023-06-24T10:35:26;29.50;99.90
46416;DHT22;32620;51.704;7.822;2023-06-24T10:37:56;28.90;99.90
46416;DHT22;32620;51.704;7.822;2023-06-24T10:40:39;28.00;1.00
46416;DHT22;32620;51.704;7.822;2023-06-24T10:43:23;28.10;6.80
46416;DHT22;32620;51.704;7.822;2023-06-24T10:45:51;27.70;99.90
46416;DHT22;32620;51.704;7.822;2023-06-24T10:48:18;27.40;1.00
46416;DHT22;32620;51.704;7.822;2023-06-24T10:50:47;27.40;1.00
46416;DHT22;32620;51.704;7.822;2023-06-24T10:53:13;27.60;1.00
46416;DHT22;32620;51.704;7.822;2023-06-24T10:55:39;27.50;29.20
46416;DHT22;32620;51.704;7.822;2023-06-24T10:58:09;27.10;1.00
46416;DHT22;32620;51.704;7.822;2023-06-24T11:00:34;28.50;1.00
46416;DHT22;32620;51.704;7.822;2023-06-24T11:03:16;28.30;1.00
46416;DHT22;32620;51.704;7.822;2023-06-24T11:05:45;28.40;1.00
46416;DHT22;32620;51.704;7.822;2023-06-24T11:08:11;28.60;1.00
46416;DHT22;32620;51.704;7.822;2023-06-24T11:10:45;28.20;1.00
46416;DHT22;32620;51.704;7.822;2023-06-24T11:13:11;27.40;1.00
46416;DHT22;32620;51.704;7.822;2023-06-24T11:15:39;26.70;99.90
46416;DHT22;32620;51.704;7.822;2023-06-24T11:18:08;26.50;99.90
46416;DHT22;32620;51.704;7.822;2023-06-24T11:20:36;26.60;99.90
46416;DHT22;32620;51.704;7.822;2023-06-24T11:23:02;26.80;99.90
46416;DHT22;32620;51.704;7.822;2023-06-24T11:25:27;27.70;99.90
46416;DHT22;32620;51.704;7.822;2023-06-24T11:27:53;28.20;99.90
46416;DHT22;32620;51.704;7.822;2023-06-24T11:30:19;27.90;99.90
46416;DHT22;32620;51.704;7.822;2023-06-24T11:32:45;27.30;99.90
46416;DHT22;32620;51.704;7.822;2023-06-24T11:35:13;27.30;99.90
46416;DHT22;32620;51.704;7.822;2023-06-24T11:37:45;28.20;99.90
46416;DHT22;32620;51.704;7.822;2023-06-24T11:40:12;28.00;99.90
46416;DHT22;32620;51.704;7.822;2023-06-24T11:42:40;28.60;99.90
46416;DHT22;32620;51.704;7.822;2023-06-24T11:45:08;28.60;99.90
46416;DHT22;32620;51.704;7.822;2023-06-24T11:47:34;28.50;99.90
46416;DHT22;32620;51.704;7.822;2023-06-24T11:50:00;28.10;99.90
46416;DHT22;32620;51.704;7.822;2023-06-24T11:52:48;28.20;99.90
46416;DHT22;32620;51.704;7.822;2023-06-24T11:55:23;28.60;99.90
46416;DHT22;32620;51.704;7.822;2023-06-24T12:00:38;28.50;99.90
46416;DHT22;32620;51.704;7.822;2023-06-24T12:03:08;28.80;88.90
46416;DHT22;32620;51.704;7.822;2023-06-24T12:05:35;28.70;99.90
46416;DHT22;32620;51.704;7.822;2023-06-24T12:08:03;28.90;99.90
46416;DHT22;32620;51.704;7.822;2023-06-24T12:10:31;28.70;99.90
46416;DHT22;32620;51.704;7.822;2023-06-24T12:12:59;29.00;99.90
46416;DHT22;32620;51.704;7.822;2023-06-24T12:15:25;28.70;1.00
46416;DHT22;32620;51.704;7.822;2023-06-24T12:17:51;28.40;1.00
46416;DHT22;32620;51.704;7.822;2023-06-24T12:20:17;28.70;99.90
46416;DHT22;32620;51.704;7.822;2023-06-24T12:22:44;28.80;99.90
46416;DHT22;32620;51.704;7.822;2023-06-24T12:25:10;28.90;99.90
46416;DHT22;32620;51.704;7.822;2023-06-24T12:27:37;29.20;99.90
46416;DHT22;32620;51.704;7.822;2023-06-24T12:30:02;28.90;99.90
46416;DHT22;32620;51.704;7.822;2023-06-24T12:32:28;28.90;1.00
46416;DHT22;32620;51.704;7.822;2023-06-24T12:34:54;29.10;1.00
46416;DHT22;32620;51.704;7.822;2023-06-24T12:37:19;29.10;1.00
46416;DHT22;32620;51.704;7.822;2023-06-24T12:39:45;29.00;1.00
46416;DHT22;32620;51.704;7.822;2023-06-24T12:42:11;28.70;99.90
46416;DHT22;32620;51.704;7.822;2023-06-24T12:44:36;28.70;99.90
46416;DHT22;32620;51.704;7.822;2023-06-24T12:47:02;28.90;99.90
46416;DHT22;32620;51.704;7.822;2023-06-24T12:49:28;28.70;99.90
46416;DHT22;32620;51.704;7.822;2023-06-24T12:51:53;29.20;99.90
46416;DHT22;32620;51.704;7.822;2023-06-24T12:54:19;28.80;99.90
46416;DHT22;32620;51.704;7.822;2023-06-24T12:56:44;28.60;99.90
46416;DHT22;32620;51.704;7.822;2023-06-24T12:59:10;28.80;99.90
46416;DHT22;32620;51.704;7.822;2023-06-24T13:01:36;29.20;99.90
46416;DHT22;32620;51.704;7.822;2023-06-24T13:04:01;29.40;99.90
46416;DHT22;32620;51.704;7.822;2023-06-24T13:06:27;29.10;99.90
46416;DHT22;32620;51.704;7.822;2023-06-24T13:08:52;28.60;99.90
46416;DHT22;32620;51.704;7.822;2023-06-24T13:11:18;28.80;99.90
46416;DHT22;32620;51.704;7.822;2023-06-24T13:13:43;29.00;99.90
46416;DHT22;32620;51.704;7.822;2023-06-24T13:16:09;29.20;99.90
46416;DHT22;32620;51.704;7.822;2023-06-24T13:18:35;29.20;99.90
46416;DHT22;32620;51.704;7.822;2023-06-24T13:21:00;28.60;99.90
46416;DHT22;32620;51.704;7.822;2023-06-24T13:23:26;29.00;99.90
46416;DHT22;32620;51.704;7.822;2023-06-24T13:25:51;29.00;99.90
46416;DHT22;32620;51.704;7.822;2023-06-24T13:28:17;29.30;99.90
46416;DHT22;32620;51.704;7.822;2023-06-24T13:30:42;29.00;99.90
46416;DHT22;32620;51.704;7.822;2023-06-24T13:33:08;29.30;99.90
46416;DHT22;32620;51.704;7.822;2023-06-24T13:35:34;29.10;99.90
46416;DHT22;32620;51.704;7.822;2023-06-24T13:37:59;28.20;99.90
46416;DHT22;32620;51.704;7.822;2023-06-24T13:40:25;28.20;99.90
46416;DHT22;32620;51.704;7.822;2023-06-24T13:42:51;28.30;99.90
46416;DHT22;32620;51.704;7.822;2023-06-24T13:45:16;28.70;99.90
46416;DHT22;32620;51.704;7.822;2023-06-24T13:47:42;28.80;28.00
46416;DHT22;32620;51.704;7.822;2023-06-24T13:50:08;29.10;87.00
46416;DHT22;32620;51.704;7.822;2023-06-24T13:52:34;29.30;99.90
46416;DHT22;32620;51.704;7.822;2023-06-24T13:55:00;29.20;1.00
46416;DHT22;32620;51.704;7.822;2023-06-24T13:57:25;29.20;99.90
46416;DHT22;32620;51.704;7.822;2023-06-24T13:59:51;29.30;1.00
46416;DHT22;32620;51.704;7.822;2023-06-24T14:02:16;29.00;99.90
46416;DHT22;32620;51.704;7.822;2023-06-24T14:04:42;28.60;5.10
46416;DHT22;32620;51.704;7.822;2023-06-24T14:07:08;28.70;59.80
46416;DHT22;32620;51.704;7.822;2023-06-24T14:09:34;28.90;20.10
46416;DHT22;32620;51.704;7.822;2023-06-24T14:12:00;29.10;1.00
46416;DHT22;32620;51.704;7.822;2023-06-24T14:14:26;29.30;1.00
46416;DHT22;32620;51.704;7.822;2023-06-24T14:16:51;29.30;86.00
46416;DHT22;32620;51.704;7.822;2023-06-24T14:19:17;29.00;1.00
46416;DHT22;32620;51.704;7.822;2023-06-24T14:21:43;29.20;57.20
46416;DHT22;32620;51.704;7.822;2023-06-24T14:24:08;29.30;1.00
46416;DHT22;32620;51.704;7.822;2023-06-24T14:26:36;29.40;99.90
46416;DHT22;32620;51.704;7.822;2023-06-24T14:29:02;29.60;1.00
46416;DHT22;32620;51.704;7.822;2023-06-24T14:31:28;29.40;1.00
46416;DHT22;32620;51.704;7.822;2023-06-24T14:33:54;29.40;1.00
46416;DHT22;32620;51.704;7.822;2023-06-24T14:36:19;29.30;1.00
46416;DHT22;32620;51.704;7.822;2023-06-24T14:38:45;29.40;1.00
46416;DHT22;32620;51.704;7.822;2023-06-24T14:41:11;29.40;1.00
46416;DHT22;32620;51.704;7.822;2023-06-24T14:43:37;29.40;99.90
46416;DHT22;32620;51.704;7.822;2023-06-24T14:46:02;29.40;40.90
46416;DHT22;32620;51.704;7.822;2023-06-24T14:48:28;29.30;1.00
46416;DHT22;32620;51.704;7.822;2023-06-24T14:50:54;29.20;1.00
46416;DHT22;32620;51.704;7.822;2023-06-24T14:53:19;29.20;99.90
46416;DHT22;32620;51.704;7.822;2023-06-24T14:55:45;28.90;99.90
46416;DHT22;32620;51.704;7.822;2023-06-24T14:58:11;29.00;99.90
46416;DHT22;32620;51.704;7.822;2023-06-24T15:00:37;29.10;99.90
46416;DHT22;32620;51.704;7.822;2023-06-24T15:03:02;29.20;99.90
46416;DHT22;32620;51.704;7.822;2023-06-24T15:05:28;29.00;99.90
46416;DHT22;32620;51.704;7.822;2023-06-24T15:07:54;29.00;99.90
46416;DHT22;32620;51.704;7.822;2023-06-24T15:10:19;29.00;99.90
46416;DHT22;32620;51.704;7.822;2023-06-24T15:12:45;29.10;99.90
46416;DHT22;32620;51.704;7.822;2023-06-24T15:15:10;29.30;99.90
46416;DHT22;32620;51.704;7.822;2023-06-24T15:17:36;29.20;99.90
46416;DHT22;32620;51.704;7.822;2023-06-24T15:20:07;29.20;99.90
46416;DHT22;32620;51.704;7.822;2023-06-24T15:22:34;29.00;99.90
46416;DHT22;32620;51.704;7.822;2023-06-24T15:25:00;29.10;99.90
46416;DHT22;32620;51.704;7.822;2023-06-24T15:27:25;29.10;99.90
46416;DHT22;32620;51.704;7.822;2023-06-24T15:29:51;29.10;99.90
46416;DHT22;32620;51.704;7.822;2023-06-24T15:32:16;28.80;99.90
46416;DHT22;32620;51.704;7.822;2023-06-24T15:34:42;28.80;99.90
46416;DHT22;32620;51.704;7.822;2023-06-24T15:37:07;28.90;99.90
46416;DHT22;32620;51.704;7.822;2023-06-24T15:39:33;28.50;99.90
46416;DHT22;32620;51.704;7.822;2023-06-24T15:41:59;28.70;99.90
46416;DHT22;32620;51.704;7.822;2023-06-24T15:44:24;28.80;99.90
46416;DHT22;32620;51.704;7.822;2023-06-24T15:46:50;28.80;99.90
46416;DHT22;32620;51.704;7.822;2023-06-24T15:49:16;28.80;99.90
46416;DHT22;32620;51.704;7.822;2023-06-24T15:51:42;28.70;99.90